createdAt,value
2023-04-11T00:00:00.424Z,23.17
2023-04-11T00:02:27.484Z,21.03
2023-04-11T00:04:55.152Z,19.67
2023-04-11T00:07:22.097Z,20.83
2023-04-11T00:09:51.357Z,30.30
2023-04-11T00:12:19.805Z,23.60
2023-04-11T00:14:49.099Z,25.57
2023-04-11T00:17:17.797Z,19.10
2023-04-11T00:19:46.253Z,25.97
2023-04-11T00:22:18.024Z,23.30
2023-04-11T00:24:45.760Z,21.87
2023-04-11T00:27:12.435Z,26.37
2023-04-11T00:29:39.577Z,26.17
2023-04-11T00:32:06.944Z,19.80
2023-04-11T00:34:34.564Z,26.93
2023-04-11T00:37:01.863Z,24.03
2023-04-11T00:39:30.435Z,21.10
2023-04-11T00:42:08.624Z,16.03
2023-04-11T00:44:36.665Z,20.63
2023-04-11T00:47:06.334Z,16.77
2023-04-11T00:49:33.380Z,20.97
2023-04-11T00:52:00.506Z,24.80
2023-04-11T00:54:30.587Z,23.67
2023-04-11T00:56:59.779Z,24.90
2023-04-11T00:59:30.915Z,29.83
2023-04-11T01:01:58.576Z,25.50
2023-04-11T01:04:26.261Z,23.50
2023-04-11T01:06:59.735Z,19.60
2023-04-11T01:09:27.894Z,19.53
2023-04-11T01:11:55.167Z,26.03
2023-04-11T01:14:22.964Z,30.80
2023-04-11T01:16:50.854Z,20.10
2023-04-11T01:19:20.021Z,25.30
2023-04-11T01:21:48.314Z,17.03
2023-04-11T01:24:15.113Z,23.47
2023-04-11T01:26:42.302Z,16.47
2023-04-11T01:29:09.205Z,25.90
2023-04-11T01:31:36.732Z,25.23
2023-04-11T01:34:04.611Z,25.10
2023-04-11T01:36:32.394Z,29.83
2023-04-11T01:38:59.610Z,31.43
2023-04-11T01:41:29.730Z,18.47
2023-04-11T01:43:57.084Z,17.37
2023-04-11T01:46:24.852Z,20.63
2023-04-11T01:48:54.195Z,19.57
2023-04-11T01:51:21.344Z,21.90
2023-04-11T01:53:48.124Z,25.03
2023-04-11T01:56:15.296Z,23.27
2023-04-11T01:58:42.218Z,17.83
2023-04-11T02:01:09.092Z,18.33
2023-04-11T02:03:37.090Z,36.33
2023-04-11T02:06:04.568Z,22.60
2023-04-11T02:08:31.552Z,13.43
2023-04-11T02:10:58.484Z,18.63
2023-04-11T02:13:25.307Z,26.77
2023-04-11T02:15:52.472Z,20.33
2023-04-11T02:18:19.507Z,20.93
2023-04-11T02:20:46.300Z,15.73
2023-04-11T02:23:14.264Z,21.60
2023-04-11T02:25:41.427Z,21.33
2023-04-11T02:28:08.448Z,16.33
2023-04-11T02:30:35.452Z,27.73
2023-04-11T02:33:03.283Z,30.83
2023-04-11T02:35:30.224Z,15.17
2023-04-11T02:38:00.148Z,22.57
2023-04-11T02:40:26.956Z,25.93
2023-04-11T02:42:53.901Z,18.83
2023-04-11T02:45:21.522Z,27.30
2023-04-11T02:47:48.552Z,21.70
2023-04-11T02:50:16.161Z,23.70
2023-04-11T02:52:49.604Z,29.97
2023-04-11T02:55:22.953Z,21.37
2023-04-11T02:57:50.836Z,22.20
2023-04-11T03:00:20.226Z,14.07
2023-04-11T03:02:56.914Z,14.33
2023-04-11T03:05:25.104Z,21.43
2023-04-11T03:07:53.892Z,21.37
2023-04-11T03:10:20.779Z,13.60
2023-04-11T03:12:47.906Z,21.07
2023-04-11T03:15:15.683Z,18.30
2023-04-11T03:17:42.723Z,19.47
2023-04-11T03:20:14.048Z,21.03
2023-04-11T03:22:46.850Z,25.73
2023-04-11T03:25:14.880Z,15.10
2023-04-11T03:27:42.958Z,27.53
2023-04-11T03:30:11.674Z,19.57
2023-04-11T03:32:42.081Z,16.87
2023-04-11T03:35:09.858Z,21.93
2023-04-11T03:37:39.984Z,21.50
2023-04-11T03:40:08.562Z,23.57
2023-04-11T03:42:38.263Z,15.77
2023-04-11T03:45:08.187Z,24.50
2023-04-11T03:47:35.649Z,26.10
2023-04-11T03:50:04.097Z,12.13
2023-04-11T03:52:37.778Z,16.97
2023-04-11T03:55:10.059Z,22.67
2023-04-11T03:57:36.844Z,34.80
2023-04-11T04:00:06.317Z,17.43
2023-04-11T04:02:42.304Z,19.00
2023-04-11T04:05:13.416Z,16.43
2023-04-11T04:07:40.987Z,22.83
2023-04-11T04:10:24.336Z,15.23
2023-04-11T04:12:53.648Z,24.47
2023-04-11T04:15:24.006Z,15.07
2023-04-11T04:17:52.258Z,19.00
2023-04-11T04:20:26.956Z,18.67
2023-04-11T04:22:58.113Z,16.80
2023-04-11T04:25:34.826Z,20.83
2023-04-11T04:28:01.639Z,16.80
2023-04-11T04:30:38.255Z,25.93
2023-04-11T04:33:12.451Z,18.60
2023-04-11T04:35:45.150Z,22.53
2023-04-11T04:38:18.051Z,20.30
2023-04-11T04:40:54.908Z,21.30
2023-04-11T04:43:24.561Z,22.97
2023-04-11T04:46:06.167Z,27.50
2023-04-11T04:48:40.564Z,22.13
2023-04-11T04:51:08.234Z,23.23
2023-04-11T04:53:39.044Z,19.40
2023-04-11T04:56:08.635Z,23.40
2023-04-11T04:58:39.436Z,27.23
2023-04-11T05:01:11.483Z,23.47
2023-04-11T05:03:39.511Z,15.67
2023-04-11T05:06:11.596Z,20.93
2023-04-11T05:08:39.832Z,15.90
2023-04-11T05:11:09.247Z,21.27
2023-04-11T05:13:37.174Z,17.53
2023-04-11T05:16:05.534Z,15.70
2023-04-11T05:18:32.592Z,24.13
2023-04-11T05:20:59.390Z,15.70
2023-04-11T05:23:33.413Z,14.63
2023-04-11T05:26:02.339Z,22.07
2023-04-11T05:28:31.677Z,24.47
2023-04-11T05:30:59.267Z,19.33
2023-04-11T05:33:27.791Z,17.63
2023-04-11T05:35:56.128Z,18.37
2023-04-11T05:38:23.860Z,20.20
2023-04-11T05:40:50.725Z,14.40
2023-04-11T05:43:19.398Z,16.43
2023-04-11T05:45:48.262Z,15.77
2023-04-11T05:48:22.959Z,15.83
2023-04-11T05:50:54.116Z,17.97
2023-04-11T05:53:21.384Z,16.63
2023-04-11T05:55:48.130Z,19.50
2023-04-11T05:58:15.028Z,14.33
2023-04-11T06:00:42.099Z,11.97
2023-04-11T06:03:09.620Z,18.70
2023-04-11T06:05:36.575Z,18.90
2023-04-11T06:08:05.146Z,12.03
2023-04-11T06:10:32.101Z,12.57
2023-04-11T06:12:59.178Z,14.33
2023-04-11T06:15:27.149Z,13.97
2023-04-11T06:17:54.579Z,8.63
2023-04-11T06:20:22.360Z,11.57
2023-04-11T06:22:51.619Z,9.30
2023-04-11T06:25:20.055Z,9.63
2023-04-11T06:27:47.399Z,15.70
2023-04-11T06:30:14.670Z,15.33
2023-04-11T06:32:41.597Z,13.67
2023-04-11T06:35:09.149Z,11.00
2023-04-11T06:37:36.043Z,12.23
2023-04-11T06:40:05.675Z,10.77
2023-04-11T06:42:32.751Z,12.07
2023-04-11T06:44:59.558Z,11.20
2023-04-11T06:47:26.805Z,15.37
2023-04-11T06:49:53.540Z,17.27
2023-04-11T06:52:20.275Z,10.23
2023-04-11T06:54:48.178Z,10.80
2023-04-11T06:57:15.016Z,10.83
2023-04-11T06:59:41.747Z,13.90
2023-04-11T07:02:08.576Z,9.67
2023-04-11T07:04:35.484Z,11.10
2023-04-11T07:07:02.284Z,8.53
2023-04-11T07:09:29.009Z,14.60
2023-04-11T07:11:56.334Z,18.73
2023-04-11T07:14:23.130Z,11.90
2023-04-11T07:16:49.924Z,17.50
2023-04-11T07:19:16.568Z,12.97
2023-04-11T07:21:43.627Z,15.30
2023-04-11T07:24:11.168Z,18.30
2023-04-11T07:26:38.989Z,13.83
2023-04-11T07:29:09.113Z,10.50
2023-04-11T07:31:37.479Z,16.27
2023-04-11T07:34:04.272Z,13.50
2023-04-11T07:36:31.958Z,13.90
2023-04-11T07:39:00.150Z,8.53
2023-04-11T07:41:27.251Z,15.03
2023-04-11T07:43:54.161Z,11.00
2023-04-11T07:46:21.061Z,12.80
2023-04-11T07:48:47.723Z,14.00
2023-04-11T07:51:15.114Z,11.20
2023-04-11T07:53:42.095Z,14.77
2023-04-11T07:56:09.349Z,15.50
2023-04-11T07:58:36.469Z,13.30
2023-04-11T08:01:04.076Z,13.97
2023-04-11T08:03:31.625Z,16.80
2023-04-11T08:05:58.863Z,11.27
2023-04-11T08:08:26.354Z,11.37
2023-04-11T08:10:53.052Z,13.27
2023-04-11T08:13:27.350Z,12.37
2023-04-11T08:15:57.801Z,10.37
2023-04-11T08:18:25.552Z,18.77
2023-04-11T08:20:52.952Z,17.37
2023-04-11T08:23:21.622Z,9.87
2023-04-11T08:25:48.364Z,9.10
2023-04-11T08:28:17.038Z,12.37
2023-04-11T08:30:43.840Z,11.37
2023-04-11T08:33:12.535Z,8.00
2023-04-11T08:35:43.095Z,9.10
2023-04-11T08:38:09.892Z,8.03
2023-04-11T08:40:36.806Z,11.93
2023-04-11T08:43:03.979Z,11.43
2023-04-11T08:45:31.058Z,16.83
2023-04-11T08:47:58.288Z,10.10
2023-04-11T08:50:26.265Z,8.53
2023-04-11T08:52:53.202Z,9.57
2023-04-11T08:55:20.881Z,11.40
2023-04-11T08:57:47.787Z,6.63
2023-04-11T09:00:15.394Z,11.43
2023-04-11T09:03:03.353Z,11.07
2023-04-11T09:05:33.589Z,7.80
2023-04-11T09:08:04.638Z,7.93
2023-04-11T09:10:31.569Z,7.20
2023-04-11T09:12:59.046Z,8.00
2023-04-11T09:15:30.289Z,9.70
2023-04-11T09:18:00.284Z,5.83
2023-04-11T09:20:30.424Z,5.07
2023-04-11T09:22:59.117Z,8.40
2023-04-11T09:25:25.935Z,12.87
2023-04-11T09:28:08.291Z,10.07
2023-04-11T09:30:35.304Z,7.83
2023-04-11T09:33:24.175Z,5.53
2023-04-11T09:35:53.547Z,6.90
2023-04-11T09:38:35.155Z,7.83
2023-04-11T09:41:03.885Z,7.30
2023-04-11T09:43:50.879Z,6.00
2023-04-11T09:46:21.080Z,8.60
2023-04-11T09:48:53.092Z,9.00
2023-04-11T09:51:35.241Z,6.73
2023-04-11T09:54:04.898Z,8.47
2023-04-11T09:56:35.045Z,7.20
2023-04-11T09:59:02.827Z,5.97
2023-04-11T10:01:29.552Z,11.00
2023-04-11T10:03:57.745Z,8.87
2023-04-11T10:06:35.070Z,7.77
2023-04-11T10:09:10.963Z,10.23
2023-04-11T10:11:41.409Z,9.60
2023-04-11T10:14:08.177Z,10.03
2023-04-11T10:16:35.263Z,11.70
2023-04-11T10:19:02.014Z,10.37
2023-04-11T10:21:35.152Z,7.80
2023-04-11T10:24:20.315Z,7.60
2023-04-11T10:26:57.639Z,4.83
2023-04-11T10:29:33.031Z,6.83
2023-04-11T10:32:19.245Z,9.37
2023-04-11T10:35:10.681Z,7.90
2023-04-11T10:37:37.807Z,7.27
2023-04-11T10:40:11.185Z,4.33
2023-04-11T10:42:43.004Z,7.60
2023-04-11T10:45:18.939Z,7.80
2023-04-11T10:47:52.132Z,8.00
2023-04-11T10:50:42.219Z,10.20
2023-04-11T10:53:14.431Z,13.20
2023-04-11T10:55:50.742Z,12.20
2023-04-11T10:58:22.375Z,8.90
2023-04-11T11:00:55.794Z,16.73
2023-04-11T11:03:30.834Z,10.80
2023-04-11T11:06:04.056Z,9.13
2023-04-11T11:08:33.458Z,14.20
2023-04-11T11:11:07.034Z,9.43
2023-04-11T11:13:41.681Z,14.13
2023-04-11T11:16:11.104Z,6.17
2023-04-11T11:18:38.845Z,9.50
2023-04-11T11:21:09.306Z,9.33
2023-04-11T11:23:47.766Z,10.63
2023-04-11T11:26:14.549Z,16.43
2023-04-11T11:28:48.730Z,6.97
2023-04-11T11:31:15.674Z,6.13
2023-04-11T11:33:42.773Z,10.43
2023-04-11T11:36:10.607Z,11.50
2023-04-11T11:38:37.593Z,9.57
2023-04-11T11:41:04.705Z,6.13
2023-04-11T11:43:36.298Z,7.90
2023-04-11T11:46:08.815Z,9.43
2023-04-11T11:48:36.277Z,10.03
2023-04-11T11:51:03.224Z,11.27
2023-04-11T11:53:30.122Z,7.43
2023-04-11T11:55:56.893Z,6.80
2023-04-11T11:58:24.090Z,7.87
2023-04-11T12:00:51.718Z,12.30
2023-04-11T12:03:22.554Z,8.03
2023-04-11T12:05:51.583Z,7.87
2023-04-11T12:08:20.656Z,4.60
2023-04-11T12:10:48.127Z,8.17
2023-04-11T12:13:19.190Z,5.43
2023-04-11T12:15:57.276Z,9.10
2023-04-11T12:18:25.852Z,6.70
2023-04-11T12:20:52.776Z,6.07
2023-04-11T12:23:20.375Z,8.33
2023-04-11T12:25:47.670Z,7.73
2023-04-11T12:28:14.686Z,8.03
2023-04-11T12:30:41.701Z,11.43
2023-04-11T12:33:08.761Z,11.33
2023-04-11T12:35:35.624Z,6.13
2023-04-11T12:38:02.413Z,8.83
2023-04-11T12:40:29.830Z,12.00
2023-04-11T12:42:57.471Z,7.03
2023-04-11T12:45:24.778Z,8.77
2023-04-11T12:47:51.663Z,9.73
2023-04-11T12:50:18.536Z,6.33
2023-04-11T12:52:45.537Z,9.23
2023-04-11T12:55:13.177Z,7.70
2023-04-11T12:57:41.091Z,5.17
2023-04-11T13:00:08.969Z,9.07
2023-04-11T13:02:43.789Z,9.60
2023-04-11T13:05:14.679Z,14.80
2023-04-11T13:07:42.692Z,8.07
2023-04-11T13:10:10.260Z,5.33
2023-04-11T13:12:41.602Z,9.50
2023-04-11T13:15:09.866Z,5.93
2023-04-11T13:17:36.805Z,6.90
2023-04-11T13:20:13.334Z,10.20
2023-04-11T13:22:41.415Z,7.50
2023-04-11T13:25:08.852Z,8.13
2023-04-11T13:27:36.400Z,7.97
2023-04-11T13:30:04.987Z,6.30
2023-04-11T13:32:32.630Z,7.10
2023-04-11T13:34:59.557Z,5.03
2023-04-11T13:37:26.831Z,3.80
2023-04-11T13:39:53.650Z,7.73
2023-04-11T13:42:21.849Z,9.43
2023-04-11T13:44:48.520Z,8.73
2023-04-11T13:47:15.536Z,7.43
2023-04-11T13:49:42.369Z,6.53
2023-04-11T13:52:09.181Z,4.93
2023-04-11T13:54:38.150Z,3.60
2023-04-11T13:57:07.800Z,5.53
2023-04-11T13:59:34.833Z,5.57
2023-04-11T14:02:02.822Z,10.70
2023-04-11T14:04:29.913Z,6.90
2023-04-11T14:06:57.223Z,6.00
2023-04-11T14:09:24.213Z,4.47
2023-04-11T14:11:51.282Z,5.43
2023-04-11T14:14:18.138Z,9.23
2023-04-11T14:16:45.177Z,5.43
2023-04-11T14:19:11.918Z,5.00
2023-04-11T14:21:38.795Z,8.07
2023-04-11T14:24:05.911Z,7.87
2023-04-11T14:26:32.620Z,2.60
2023-04-11T14:28:59.538Z,5.60
2023-04-11T14:31:26.562Z,2.87
2023-04-11T14:33:53.797Z,5.87
2023-04-11T14:36:20.610Z,3.40
2023-04-11T14:38:47.408Z,3.87
2023-04-11T14:41:14.178Z,4.60
2023-04-11T14:43:41.274Z,6.60
2023-04-11T14:46:08.141Z,4.43
2023-04-11T14:48:35.088Z,4.57
2023-04-11T14:51:05.470Z,9.43
2023-04-11T14:53:32.509Z,6.27
2023-04-11T14:55:59.367Z,5.80
2023-04-11T14:58:26.361Z,5.43
2023-04-11T15:00:53.211Z,6.87
2023-04-11T15:03:20.296Z,12.00
2023-04-11T15:05:52.897Z,7.20
2023-04-11T15:08:19.745Z,8.17
2023-04-11T15:10:46.460Z,7.40
2023-04-11T15:13:13.227Z,7.47
2023-04-11T15:15:40.360Z,6.13
2023-04-11T15:18:21.977Z,6.17
2023-04-11T15:20:49.410Z,4.20
2023-04-11T15:23:16.637Z,11.10
2023-04-11T15:25:43.672Z,8.97
2023-04-11T15:28:11.154Z,6.97
2023-04-11T15:30:47.026Z,6.07
2023-04-11T15:33:14.199Z,6.87
2023-04-11T15:35:44.519Z,6.70
2023-04-11T15:38:12.761Z,7.20
2023-04-11T15:40:40.127Z,6.77
2023-04-11T15:43:07.602Z,4.93
2023-04-11T15:45:38.480Z,5.50
2023-04-11T15:48:05.768Z,6.73
2023-04-11T15:50:32.843Z,10.17
2023-04-11T15:53:00.387Z,9.30
2023-04-11T15:55:27.399Z,6.33
2023-04-11T15:58:01.311Z,7.57
2023-04-11T16:00:37.271Z,6.83
2023-04-11T16:03:04.945Z,8.17
2023-04-11T16:05:32.544Z,5.90
2023-04-11T16:07:59.483Z,4.40
2023-04-11T16:10:26.833Z,10.63
2023-04-11T16:12:53.631Z,8.50
2023-04-11T16:15:20.356Z,6.50
2023-04-11T16:17:47.389Z,4.90
2023-04-11T16:20:18.840Z,9.17
2023-04-11T16:22:46.978Z,8.97
2023-04-11T16:25:21.202Z,6.67
2023-04-11T16:27:48.625Z,7.47
2023-04-11T16:30:16.763Z,7.47
2023-04-11T16:32:43.890Z,5.20
2023-04-11T16:35:10.654Z,4.83
2023-04-11T16:37:37.541Z,6.00
2023-04-11T16:40:10.693Z,5.93
2023-04-11T16:42:40.691Z,6.93
2023-04-11T16:45:08.853Z,6.67
2023-04-11T16:47:36.079Z,8.87
2023-04-11T16:50:03.962Z,7.60
2023-04-11T16:52:31.161Z,5.50
2023-04-11T16:54:58.551Z,9.60
2023-04-11T16:57:25.770Z,7.77
2023-04-11T16:59:52.606Z,7.20
2023-04-11T17:02:19.407Z,7.20
2023-04-11T17:04:46.681Z,6.13
2023-04-11T17:07:13.804Z,6.83
2023-04-11T17:09:41.531Z,9.03
2023-04-11T17:12:08.208Z,5.10
2023-04-11T17:14:36.446Z,3.97
2023-04-11T17:17:03.642Z,5.30
2023-04-11T17:19:34.054Z,3.87
2023-04-11T17:22:01.836Z,2.33
2023-04-11T17:24:29.389Z,4.73
2023-04-11T17:26:57.141Z,2.53
2023-04-11T17:29:23.970Z,4.93
2023-04-11T17:31:52.027Z,6.17
2023-04-11T17:34:18.849Z,4.93
2023-04-11T17:36:46.061Z,7.00
2023-04-11T17:39:17.588Z,6.60
2023-04-11T17:41:45.732Z,7.33
2023-04-11T17:44:13.057Z,6.20
2023-04-11T17:46:39.905Z,5.10
2023-04-11T17:49:06.619Z,4.93
2023-04-11T17:51:33.933Z,4.80
2023-04-11T17:54:00.799Z,4.67
2023-04-11T17:56:27.539Z,5.83
2023-04-11T17:58:56.029Z,4.67
2023-04-11T18:01:23.820Z,7.23
2023-04-11T18:03:50.956Z,3.40
2023-04-11T18:06:18.240Z,5.37
2023-04-11T18:08:50.528Z,11.50
2023-04-11T18:11:18.350Z,5.17
2023-04-11T18:13:46.420Z,6.47
2023-04-11T18:16:15.778Z,4.53
2023-04-11T18:18:42.685Z,4.23
2023-04-11T18:21:09.899Z,7.70
2023-04-11T18:23:36.779Z,5.27
2023-04-11T18:26:03.921Z,5.03
2023-04-11T18:28:30.790Z,10.53
2023-04-11T18:30:57.685Z,6.67
2023-04-11T18:33:25.743Z,6.43
2023-04-11T18:35:52.582Z,4.37
2023-04-11T18:38:19.496Z,5.83
2023-04-11T18:40:46.373Z,6.37
2023-04-11T18:43:14.063Z,6.43
2023-04-11T18:45:42.224Z,4.03
2023-04-11T18:48:10.368Z,7.33
2023-04-11T18:50:39.036Z,7.50
2023-04-11T18:53:10.660Z,6.37
2023-04-11T18:55:40.344Z,10.30
2023-04-11T18:58:09.615Z,6.50
2023-04-11T19:00:39.784Z,8.83
2023-04-11T19:03:07.167Z,8.20
2023-04-11T19:05:34.716Z,7.60
2023-04-11T19:08:02.875Z,9.67
2023-04-11T19:10:30.136Z,5.20
2023-04-11T19:12:56.970Z,5.43
2023-04-11T19:15:24.082Z,8.70
2023-04-11T19:17:51.681Z,8.40
2023-04-11T19:20:19.275Z,14.70
2023-04-11T19:22:46.567Z,7.70
2023-04-11T19:25:13.393Z,12.20
2023-04-11T19:27:41.990Z,5.47
2023-04-11T19:30:11.232Z,13.67
2023-04-11T19:32:38.802Z,7.93
2023-04-11T19:35:08.886Z,8.07
2023-04-11T19:37:36.642Z,7.67
2023-04-11T19:40:07.540Z,8.30
2023-04-11T19:42:37.051Z,8.63
2023-04-11T19:45:05.008Z,6.37
2023-04-11T19:47:32.790Z,5.10
2023-04-11T19:50:01.325Z,4.87
2023-04-11T19:52:28.683Z,5.10
2023-04-11T19:54:56.716Z,5.83
2023-04-11T19:57:25.621Z,7.47
2023-04-11T19:59:52.388Z,7.50
2023-04-11T20:02:19.446Z,6.73
2023-04-11T20:04:46.667Z,10.93
2023-04-11T20:07:13.552Z,5.97
2023-04-11T20:09:40.363Z,7.37
2023-04-11T20:12:07.436Z,4.43
2023-04-11T20:14:34.507Z,7.23
2023-04-11T20:17:05.334Z,7.40
2023-04-11T20:19:33.353Z,9.60
2023-04-11T20:22:03.673Z,9.17
2023-04-11T20:24:30.806Z,4.83
2023-04-11T20:26:58.162Z,7.37
2023-04-11T20:29:30.924Z,10.30
2023-04-11T20:31:58.415Z,5.90
2023-04-11T20:34:25.477Z,7.90
2023-04-11T20:36:52.657Z,8.53
2023-04-11T20:39:19.624Z,6.77
2023-04-11T20:41:47.353Z,6.00
2023-04-11T20:44:19.222Z,7.70
2023-04-11T20:46:46.365Z,3.77
2023-04-11T20:49:13.349Z,12.10
2023-04-11T20:51:41.254Z,12.47
2023-04-11T20:54:11.123Z,9.03
2023-04-11T20:56:38.322Z,4.50
2023-04-11T20:59:05.314Z,4.93
2023-04-11T21:01:33.033Z,7.33
2023-04-11T21:04:03.693Z,6.60
2023-04-11T21:06:34.468Z,6.90
2023-04-11T21:09:05.944Z,9.77
2023-04-11T21:11:33.746Z,10.57
2023-04-11T21:14:00.659Z,10.13
2023-04-11T21:16:28.303Z,9.40
2023-04-11T21:18:55.199Z,11.17
2023-04-11T21:21:21.972Z,6.23
2023-04-11T21:23:48.829Z,4.90
2023-04-11T21:26:15.626Z,12.20
2023-04-11T21:28:44.530Z,4.73
2023-04-11T21:31:15.672Z,9.23
2023-04-11T21:34:05.883Z,6.80
2023-04-11T21:36:34.577Z,7.43
2023-04-11T21:39:01.796Z,7.77
2023-04-11T21:41:34.864Z,7.37
2023-04-11T21:44:02.901Z,8.50
2023-04-11T21:46:30.501Z,7.27
2023-04-11T21:48:59.369Z,4.87
2023-04-11T21:51:27.626Z,6.57
2023-04-11T21:53:59.277Z,4.43
2023-04-11T21:56:26.130Z,5.00
2023-04-11T21:58:52.947Z,7.17
2023-04-11T22:01:21.666Z,3.00
2023-04-11T22:03:56.984Z,5.67
2023-04-11T22:06:26.679Z,10.07
2023-04-11T22:08:54.305Z,6.20
2023-04-11T22:11:24.444Z,3.27
2023-04-11T22:13:52.946Z,2.87
2023-04-11T22:16:30.433Z,6.23
2023-04-11T22:19:07.872Z,7.10
2023-04-11T22:21:34.842Z,6.93
2023-04-11T22:24:02.406Z,3.27
2023-04-11T22:26:43.989Z,8.63
2023-04-11T22:29:12.417Z,4.07
2023-04-11T22:31:44.182Z,4.73
2023-04-11T22:34:18.927Z,4.93
2023-04-11T22:36:47.649Z,1.80
2023-04-11T22:39:14.651Z,4.10
2023-04-11T22:41:44.757Z,6.03
2023-04-11T22:44:14.614Z,2.90
2023-04-11T22:47:09.004Z,4.27
2023-04-11T22:49:42.411Z,2.63
2023-04-11T22:52:14.252Z,5.67
2023-04-11T22:54:43.087Z,7.20
2023-04-11T22:57:16.064Z,0.93
2023-04-11T22:59:43.005Z,4.83
2023-04-11T23:02:10.220Z,2.13
2023-04-11T23:04:37.210Z,4.50
2023-04-11T23:07:05.459Z,5.87
2023-04-11T23:09:32.330Z,5.17
2023-04-11T23:11:58.995Z,3.00
2023-04-11T23:14:31.324Z,2.70
2023-04-11T23:16:58.587Z,2.17
2023-04-11T23:19:25.644Z,2.03
2023-04-11T23:21:52.531Z,2.73
2023-04-11T23:24:19.392Z,3.97
2023-04-11T23:26:46.535Z,3.53
2023-04-11T23:29:13.403Z,4.90
2023-04-11T23:31:40.674Z,1.70
2023-04-11T23:34:07.449Z,3.33
2023-04-11T23:36:34.604Z,1.73
2023-04-11T23:39:02.119Z,5.00
2023-04-11T23:41:30.333Z,4.40
2023-04-11T23:43:57.415Z,2.90
2023-04-11T23:46:24.737Z,2.57
2023-04-11T23:48:52.969Z,2.10
2023-04-11T23:51:19.703Z,3.83
2023-04-11T23:53:46.473Z,3.37
2023-04-11T23:56:14.009Z,2.93
2023-04-11T23:58:41.010Z,4.70
